createdAt,value
2018-07-09T00:02:05.442Z,58.50
2018-07-09T00:07:09.026Z,58.80
2018-07-09T00:12:12.479Z,58.90
2018-07-09T00:17:15.197Z,58.90
2018-07-09T00:22:17.773Z,58.80
2018-07-09T00:27:20.429Z,59.20
2018-07-09T00:32:23.062Z,59.80
2018-07-09T00:37:25.616Z,59.60
2018-07-09T00:42:28.233Z,59.30
2018-07-09T00:47:30.885Z,59.70
2018-07-09T00:52:33.405Z,60.00
2018-07-09T00:57:36.062Z,60.20
2018-07-09T01:02:39.434Z,61.10
2018-07-09T01:07:42.052Z,61.20
2018-07-09T01:12:44.633Z,61.00
2018-07-09T01:17:47.212Z,61.50
2018-07-09T01:22:49.780Z,61.40
2018-07-09T01:27:52.430Z,61.30
2018-07-09T01:32:54.955Z,61.50
2018-07-09T01:37:58.123Z,61.90
2018-07-09T01:43:02.573Z,61.90
2018-07-09T01:48:05.886Z,62.10
2018-07-09T01:53:09.289Z,62.10
2018-07-09T01:58:11.891Z,62.30
2018-07-09T02:03:14.468Z,61.60
2018-07-09T02:08:17.812Z,62.60
2018-07-09T02:13:20.429Z,62.60
2018-07-09T02:18:22.991Z,63.20
2018-07-09T02:23:25.568Z,63.50
2018-07-09T02:28:28.203Z,62.90
2018-07-09T02:33:30.767Z,63.40
2018-07-09T02:38:33.429Z,63.60
2018-07-09T02:43:36.070Z,63.10
2018-07-09T02:48:38.605Z,63.10
2018-07-09T02:53:41.099Z,63.50
2018-07-09T02:58:43.785Z,64.00
2018-07-09T03:03:46.445Z,64.00
2018-07-09T03:08:49.042Z,65.00
2018-07-09T03:13:52.450Z,64.20
2018-07-09T03:18:55.078Z,64.10
2018-07-09T03:23:57.632Z,65.00
2018-07-09T03:29:00.999Z,65.20
2018-07-09T03:34:03.726Z,65.20
2018-07-09T03:39:06.266Z,65.50
2018-07-09T03:44:08.868Z,65.40
2018-07-09T03:49:11.423Z,65.60
2018-07-09T03:54:14.047Z,65.80
2018-07-09T03:59:16.700Z,66.20
2018-07-09T04:04:19.250Z,66.10
2018-07-09T04:09:21.805Z,66.20
2018-07-09T04:14:24.433Z,66.50
2018-07-09T04:19:27.011Z,66.50
2018-07-09T04:24:29.531Z,66.20
2018-07-09T04:29:32.136Z,66.60
2018-07-09T04:34:34.696Z,66.50
2018-07-09T04:39:37.265Z,66.50
2018-07-09T04:44:39.789Z,66.30
2018-07-09T04:49:42.596Z,66.90
2018-07-09T04:54:45.169Z,66.70
2018-07-09T04:59:47.767Z,67.20
2018-07-09T05:04:50.330Z,66.50
2018-07-09T05:09:53.090Z,66.40
2018-07-09T05:14:55.761Z,66.30
2018-07-09T05:19:58.285Z,66.30
2018-07-09T05:25:00.877Z,66.30
2018-07-09T05:30:03.549Z,65.90
2018-07-09T05:35:06.991Z,66.00
2018-07-09T05:40:10.497Z,66.10
2018-07-09T05:45:13.480Z,65.80
2018-07-09T05:50:18.056Z,66.10
2018-07-09T05:55:20.917Z,66.00
2018-07-09T06:00:25.279Z,65.80
2018-07-09T06:05:32.655Z,67.50
2018-07-09T06:10:35.326Z,66.70
2018-07-09T06:15:39.168Z,67.00
2018-07-09T06:20:41.895Z,66.10
2018-07-09T06:25:45.894Z,65.30
2018-07-09T06:30:48.620Z,64.80
2018-07-09T06:35:51.367Z,64.70
2018-07-09T06:40:55.603Z,63.70
2018-07-09T06:46:00.008Z,63.10
2018-07-09T06:51:07.667Z,63.00
2018-07-09T06:56:14.695Z,61.70
2018-07-09T07:01:19.551Z,61.50
2018-07-09T07:06:25.445Z,61.30
2018-07-09T07:11:28.571Z,60.00
2018-07-09T07:16:36.315Z,59.70
2018-07-09T07:21:41.880Z,58.90
2018-07-09T07:26:50.384Z,58.80
2018-07-09T07:31:54.011Z,58.20
2018-07-09T07:37:03.182Z,57.70
2018-07-09T07:42:07.747Z,57.30
2018-07-09T07:47:12.940Z,56.00
2018-07-09T07:52:18.052Z,55.70
2018-07-09T07:57:22.173Z,53.60
2018-07-09T08:02:26.758Z,52.80
2018-07-09T08:07:29.985Z,52.90
2018-07-09T08:13:27.167Z,52.70
2018-07-09T08:17:40.660Z,51.70
2018-07-09T08:22:45.100Z,53.40
2018-07-09T08:27:48.950Z,52.40
2018-07-09T08:32:52.188Z,51.90
2018-07-09T08:37:56.839Z,50.10
2018-07-09T08:43:02.145Z,50.90
2018-07-09T08:48:06.355Z,50.00
2018-07-09T08:53:16.821Z,49.70
2018-07-09T08:58:21.436Z,47.60
2018-07-09T09:03:26.223Z,48.20
2018-07-09T09:08:29.942Z,49.00
2018-07-09T09:13:39.027Z,49.10
2018-07-09T09:18:43.005Z,48.60
2018-07-09T09:23:48.576Z,46.30
2018-07-09T09:28:54.288Z,45.00
2018-07-09T09:33:57.824Z,45.10
2018-07-09T09:39:02.823Z,45.00
2018-07-09T09:44:06.677Z,45.40
2018-07-09T09:49:10.879Z,44.20
2018-07-09T09:54:15.783Z,44.30
2018-07-09T09:59:21.341Z,44.10
2018-07-09T10:04:27.179Z,44.40
2018-07-09T10:09:32.977Z,43.50
2018-07-09T10:19:49.146Z,44.10
2018-07-09T10:24:55.274Z,45.00
2018-07-09T10:30:00.411Z,45.70
2018-07-09T10:35:04.066Z,46.20
2018-07-09T10:40:06.961Z,46.30
2018-07-09T10:45:12.235Z,46.60
2018-07-09T10:50:17.106Z,46.10
2018-07-09T10:55:25.596Z,45.90
2018-07-09T11:00:30.884Z,46.40
2018-07-09T11:05:36.915Z,44.80
2018-07-09T11:10:41.446Z,43.50
2018-07-09T11:15:44.862Z,44.80
2018-07-09T11:20:49.206Z,44.40
2018-07-09T11:25:55.836Z,43.90
2018-07-09T11:31:01.080Z,43.60
2018-07-09T11:36:06.176Z,43.50
2018-07-09T11:41:10.474Z,43.50
2018-07-09T11:46:14.881Z,43.10
2018-07-09T11:51:18.698Z,42.60
2018-07-09T11:56:55.758Z,43.20
2018-07-09T12:01:58.826Z,43.50
2018-07-09T12:07:01.826Z,43.80
2018-07-09T12:12:07.950Z,44.20
2018-07-09T12:17:13.171Z,43.50
2018-07-09T12:22:19.235Z,43.80
2018-07-09T12:27:23.326Z,42.90
2018-07-09T12:32:28.762Z,42.30
2018-07-09T12:37:35.835Z,42.50
2018-07-09T12:42:41.817Z,42.40
2018-07-09T12:47:46.700Z,42.90
2018-07-09T12:52:50.505Z,41.70
2018-07-09T12:58:00.181Z,41.20
2018-07-09T13:03:04.949Z,42.20
2018-07-09T13:08:09.251Z,42.60
2018-07-09T13:13:12.082Z,42.50
2018-07-09T13:18:15.594Z,42.50
2018-07-09T13:23:24.385Z,43.20
2018-07-09T13:28:29.603Z,43.00
2018-07-09T13:33:34.199Z,42.30
2018-07-09T13:38:39.375Z,42.20
2018-07-09T13:43:44.882Z,41.90
2018-07-09T13:48:50.299Z,41.00
2018-07-09T13:59:09.527Z,40.90
2018-07-09T14:04:17.177Z,40.20
2018-07-09T14:09:21.627Z,40.00
2018-07-09T14:14:25.414Z,40.60
2018-07-09T14:19:32.117Z,40.40
2018-07-09T14:24:40.797Z,41.40
2018-07-09T14:29:48.328Z,40.90
2018-07-09T14:34:55.292Z,41.40
2018-07-09T14:40:02.657Z,41.60
2018-07-09T14:45:07.116Z,41.70
2018-07-09T14:50:15.953Z,41.90
2018-07-09T14:55:20.227Z,41.70
2018-07-09T15:00:28.513Z,41.90
2018-07-09T15:05:34.914Z,42.20
2018-07-09T15:10:39.230Z,43.00
2018-07-09T15:15:42.637Z,43.80
2018-07-09T15:20:49.376Z,43.80
2018-07-09T15:25:53.099Z,43.60
2018-07-09T15:30:58.819Z,43.70
2018-07-09T15:36:05.258Z,43.80
2018-07-09T15:41:09.482Z,44.60
2018-07-09T15:46:14.528Z,43.60
2018-07-09T15:51:18.162Z,43.60
2018-07-09T15:56:25.057Z,43.80
2018-07-09T16:01:28.596Z,43.90
2018-07-09T16:06:31.314Z,43.90
2018-07-09T16:11:37.501Z,43.90
2018-07-09T16:16:41.634Z,44.10
2018-07-09T16:21:48.578Z,44.20
2018-07-09T16:26:52.164Z,44.30
2018-07-09T16:31:55.122Z,44.50
2018-07-09T16:37:00.522Z,44.90
2018-07-09T16:42:03.162Z,45.40
2018-07-09T16:47:08.043Z,45.50
2018-07-09T16:52:13.666Z,46.00
2018-07-09T16:57:18.892Z,46.20
2018-07-09T17:02:25.690Z,46.20
2018-07-09T17:07:33.517Z,46.50
2018-07-09T17:12:38.581Z,46.90
2018-07-09T17:17:43.736Z,47.10
2018-07-09T17:22:48.743Z,47.50
2018-07-09T17:27:53.672Z,47.70
2018-07-09T17:33:02.879Z,48.10
2018-07-09T17:38:11.047Z,48.30
2018-07-09T17:43:17.143Z,48.70
2018-07-09T17:48:23.099Z,49.00
2018-07-09T17:58:36.160Z,49.70
2018-07-09T18:03:40.013Z,49.90
2018-07-09T18:08:47.302Z,50.90
2018-07-09T18:13:52.979Z,53.00
2018-07-09T18:18:57.359Z,52.90
2018-07-09T18:24:02.269Z,54.90
2018-07-09T18:29:07.699Z,55.00
2018-07-09T18:34:11.554Z,55.30
2018-07-09T18:39:19.914Z,54.70
2018-07-09T18:44:28.509Z,54.60
2018-07-09T18:49:35.402Z,54.60
2018-07-09T18:54:40.189Z,55.20
2018-07-09T18:59:44.383Z,56.30
2018-07-09T19:04:49.918Z,55.70
2018-07-09T19:09:56.634Z,55.50
2018-07-09T19:15:01.236Z,55.70
2018-07-09T19:20:05.067Z,55.60
2018-07-09T19:25:08.883Z,56.40
2018-07-09T19:30:13.149Z,57.30
2018-07-09T19:35:19.605Z,57.70
2018-07-09T19:40:25.968Z,58.20
2018-07-09T19:45:31.571Z,57.90
2018-07-09T19:50:35.880Z,57.60
2018-07-09T19:55:38.072Z,57.40
2018-07-09T20:00:40.359Z,56.90
2018-07-09T20:05:42.493Z,57.20
2018-07-09T20:11:04.083Z,56.20
2018-07-09T20:16:22.142Z,56.30
2018-07-09T20:21:25.044Z,56.30
2018-07-09T20:26:27.234Z,56.20
2018-07-09T20:31:30.210Z,55.70
2018-07-09T20:36:32.376Z,55.50
2018-07-09T20:41:35.169Z,55.30
2018-07-09T20:46:37.584Z,55.20
2018-07-09T20:51:40.008Z,54.90
2018-07-09T20:56:42.404Z,54.70
2018-07-09T21:01:44.410Z,54.60
2018-07-09T21:06:46.401Z,54.60
2018-07-09T21:11:48.473Z,54.80
2018-07-09T21:16:50.443Z,54.80
2018-07-09T21:21:52.481Z,54.70
2018-07-09T21:26:54.453Z,54.50
2018-07-09T21:31:56.446Z,54.50
2018-07-09T21:36:58.470Z,54.30
2018-07-09T21:42:00.465Z,54.20
2018-07-09T21:47:02.456Z,54.10
2018-07-09T21:52:04.452Z,54.10
2018-07-09T21:57:06.454Z,53.80
2018-07-09T22:02:08.445Z,54.00
2018-07-09T22:07:10.448Z,54.10
2018-07-09T22:12:12.510Z,54.10
2018-07-09T22:17:14.472Z,53.90
2018-07-09T22:22:16.497Z,53.80
2018-07-09T22:27:18.489Z,53.80
2018-07-09T22:32:20.973Z,53.50
2018-07-09T22:37:24.216Z,53.20
2018-07-09T22:42:26.694Z,53.20
2018-07-09T22:47:29.185Z,52.90
2018-07-09T22:52:31.666Z,52.80
2018-07-09T22:57:34.145Z,52.80
2018-07-09T23:02:36.625Z,52.80
2018-07-09T23:07:39.101Z,52.60
2018-07-09T23:12:41.585Z,52.60
2018-07-09T23:17:55.905Z,52.60
2018-07-09T23:22:57.914Z,52.20
2018-07-09T23:27:59.910Z,52.10
2018-07-09T23:33:02.674Z,51.40
2018-07-09T23:38:04.664Z,51.40
2018-07-09T23:43:06.661Z,51.40
2018-07-09T23:48:08.666Z,50.90
2018-07-09T23:53:10.650Z,50.70
2018-07-09T23:58:13.903Z,50.30
